Time;durP1;ratioP1;P1;durP2;ratioP2;P2;SDS_P1;SDS_P2;PMS_P1;PMS_P2;Temp;Humidity;BMP_temperature;BMP_pressure;BME280_temperature;BME280_humidity;BME280_pressure;Samples;Min_cycle;Max_cycle;Signal;HPM_P1;HPM_P2
2022/07/08 00:00:17;;;;;;;6.88;3.80;;;;;;;27.90;38.61;100819.41;5045373;28;20088;-69
2022/07/08 00:02:44;;;;;;;4.45;2.55;;;;;;;27.94;38.18;100834.66;5044005;28;20069;-68
2022/07/08 00:05:12;;;;;;;5.25;2.55;;;;;;;27.99;38.20;100837.16;5045071;28;20060;-69
2022/07/08 00:07:39;;;;;;;6.45;2.67;;;;;;;27.89;37.98;100824.31;5034038;28;20136;-69
2022/07/08 00:10:07;;;;;;;5.53;2.33;;;;;;;27.72;38.20;100814.25;5043950;28;20463;-68
2022/07/08 00:12:34;;;;;;;3.83;2.42;;;;;;;27.67;38.68;100806.00;5043202;28;20080;-68
2022/07/08 00:15:01;;;;;;;5.80;2.30;;;;;;;27.74;38.91;100811.84;5038947;28;20127;-68
2022/07/08 00:17:28;;;;;;;6.57;2.58;;;;;;;27.74;38.56;100823.31;5044153;28;20049;-69
2022/07/08 00:19:55;;;;;;;3.33;2.20;;;;;;;27.88;38.90;100839.91;5045456;28;20098;-69
2022/07/08 00:22:22;;;;;;;3.30;2.03;;;;;;;27.83;38.73;100832.47;5041157;28;20136;-68
2022/07/08 00:24:48;;;;;;;7.55;2.55;;;;;;;27.80;38.25;100820.97;5043876;28;20053;-69
2022/07/08 00:27:15;;;;;;;3.95;2.50;;;;;;;27.91;37.91;100833.38;5041862;28;20080;-67
2022/07/08 00:29:42;;;;;;;4.85;3.05;;;;;;;27.93;37.75;100845.28;5045437;28;20095;-68
2022/07/08 00:32:09;;;;;;;5.68;2.80;;;;;;;27.80;37.95;100829.56;5034132;28;20045;-68
2022/07/08 00:34:36;;;;;;;5.25;2.50;;;;;;;27.89;37.82;100835.81;5043044;28;20415;-68
2022/07/08 00:37:03;;;;;;;5.22;2.42;;;;;;;27.76;37.62;100818.06;5045410;28;20139;-69
2022/07/08 00:39:30;;;;;;;3.05;2.00;;;;;;;27.81;37.37;100836.97;5040783;28;20575;-69
2022/07/08 00:41:58;;;;;;;3.17;2.17;;;;;;;27.72;37.22;100807.69;5033530;28;20083;-68
2022/07/08 00:44:24;;;;;;;3.65;2.40;;;;;;;27.78;37.38;100829.13;5043526;28;20045;-69
2022/07/08 00:46:52;;;;;;;8.75;2.70;;;;;;;27.82;37.18;100847.22;5037166;28;20080;-68
2022/07/08 00:49:19;;;;;;;4.03;2.45;;;;;;;27.69;37.43;100825.69;5041133;28;20087;-68
2022/07/08 00:51:46;;;;;;;3.53;2.38;;;;;;;27.75;37.49;100829.88;5040544;28;20069;-67
2022/07/08 00:54:17;;;;;;;3.28;2.53;;;;;;;27.72;37.52;100825.72;5043292;28;20139;-67
2022/07/08 00:56:45;;;;;;;3.47;2.10;;;;;;;27.69;37.06;100831.44;5038013;28;20081;-67
2022/07/08 00:59:12;;;;;;;5.72;2.75;;;;;;;27.58;37.14;100812.03;5039061;28;20057;-70
2022/07/08 01:01:39;;;;;;;4.20;2.22;;;;;;;27.63;37.46;100810.88;5036129;28;20163;-69
2022/07/08 01:04:07;;;;;;;5.35;3.13;;;;;;;27.71;37.35;100829.00;5039856;28;20137;-69
2022/07/08 01:06:34;;;;;;;3.58;2.25;;;;;;;27.67;37.17;100823.22;5042938;28;20045;-69
2022/07/08 01:09:01;;;;;;;3.67;2.53;;;;;;;27.67;37.07;100825.28;5039441;28;20072;-69
2022/07/08 01:11:28;;;;;;;9.00;1.98;;;;;;;27.51;35.93;100797.63;5048648;28;20140;-69
2022/07/08 01:13:56;;;;;;;3.88;2.05;;;;;;;27.69;35.25;100820.78;5047534;28;20179;-69
2022/07/08 01:16:23;;;;;;;4.53;2.67;;;;;;;27.68;34.43;100813.41;5037518;28;20145;-70
2022/07/08 01:18:50;;;;;;;5.38;2.30;;;;;;;27.72;34.54;100810.56;5039637;28;20076;-70
2022/07/08 01:21:17;;;;;;;3.65;1.73;;;;;;;27.70;34.31;100810.16;5039235;28;20139;-72
2022/07/08 01:23:44;;;;;;;4.32;2.55;;;;;;;27.82;34.30;100818.50;5036207;28;20084;-71
2022/07/08 01:26:12;;;;;;;4.20;2.35;;;;;;;27.82;34.26;100818.50;5047366;28;20077;-71
2022/07/08 01:28:42;;;;;;;3.25;2.17;;;;;;;27.47;34.34;100768.06;5042089;28;20061;-71
2022/07/08 01:31:10;;;;;;;5.70;3.00;;;;;;;27.81;33.97;100828.34;5036493;28;20128;-72
2022/07/08 01:33:37;;;;;;;3.70;2.20;;;;;;;27.83;32.90;100812.41;5041574;28;20127;-72
2022/07/08 01:36:05;;;;;;;3.03;1.90;;;;;;;27.87;32.56;100821.03;5040974;28;20077;-71
2022/07/08 01:38:32;;;;;;;5.82;2.22;;;;;;;27.79;32.39;100819.28;5035303;28;20141;-72
2022/07/08 01:41:00;;;;;;;3.00;1.83;;;;;;;27.86;32.16;100819.38;5049783;28;20076;-71
2022/07/08 01:43:26;;;;;;;3.17;2.60;;;;;;;27.73;31.95;100807.31;5046348;28;20135;-71
2022/07/08 01:45:54;;;;;;;3.95;2.53;;;;;;;27.83;32.34;100820.19;5037616;28;20045;-70
2022/07/08 01:48:21;;;;;;;4.35;2.42;;;;;;;27.88;31.98;100826.38;5039378;28;20057;-70
2022/07/08 01:50:48;;;;;;;3.28;2.28;;;;;;;27.78;31.89;100817.66;5040922;28;20140;-70
2022/07/08 01:53:14;;;;;;;3.22;2.00;;;;;;;27.73;32.15;100820.84;5043033;28;20135;-71
2022/07/08 01:55:41;;;;;;;3.00;2.58;;;;;;;27.68;31.85;100824.06;5048550;28;20076;-71
2022/07/08 01:58:08;;;;;;;3.20;2.83;;;;;;;27.61;30.89;100817.00;5050505;28;20136;-73
2022/07/08 02:00:35;;;;;;;4.38;3.22;;;;;;;27.76;31.79;100838.13;5049069;28;20071;-72
2022/07/08 02:03:02;;;;;;;5.25;2.80;;;;;;;27.76;31.47;100835.28;5039704;28;20180;-71
2022/07/08 02:05:32;;;;;;;4.47;3.33;;;;;;;27.68;31.44;100835.53;5047118;28;20102;-73
2022/07/08 02:08:03;;;;;;;2.72;1.75;;;;;;;27.64;31.90;100839.16;5049197;28;20380;-72
2022/07/08 02:12:18;;;;;;;4.65;2.15;;;;;;;27.72;31.79;100845.81;5045920;28;20132;-72
2022/07/08 02:13:18;;;;;;;4.07;2.80;;;;;;;27.73;31.77;100838.88;5042044;28;20141;-70
2022/07/08 02:15:45;;;;;;;4.85;2.50;;;;;;;27.70;31.89;100839.66;5042604;28;20211;-72
2022/07/08 02:18:13;;;;;;;6.65;3.58;;;;;;;27.62;31.16;100827.28;5040289;28;20049;-72
2022/07/08 02:20:40;;;;;;;2.85;2.28;;;;;;;27.48;31.35;100834.84;5049398;28;20128;-71
2022/07/08 02:23:07;;;;;;;3.50;2.28;;;;;;;27.54;31.22;100819.78;5051791;28;20041;-72
2022/07/08 02:25:34;;;;;;;3.90;2.35;;;;;;;27.47;31.45;100818.88;5048515;28;20093;-72
2022/07/08 02:28:01;;;;;;;4.90;1.73;;;;;;;27.64;31.58;100844.09;5037031;28;20056;-73
2022/07/08 02:30:28;;;;;;;3.08;2.67;;;;;;;27.58;31.29;100832.13;5043812;28;20148;-74
2022/07/08 02:32:55;;;;;;;3.30;2.83;;;;;;;27.55;31.42;100827.16;5044701;28;20107;-72
2022/07/08 02:35:22;;;;;;;4.03;2.35;;;;;;;27.56;31.03;100846.03;5048812;28;20080;-72
2022/07/08 02:37:49;;;;;;;3.80;2.17;;;;;;;27.47;31.56;100813.13;5051851;28;20132;-72
2022/07/08 02:40:16;;;;;;;2.92;2.28;;;;;;;27.43;31.79;100833.16;5044875;28;20464;-73
2022/07/08 02:42:42;;;;;;;2.67;1.75;;;;;;;27.45;31.88;100847.09;5049991;28;20130;-74
2022/07/08 02:45:09;;;;;;;3.40;2.45;;;;;;;27.48;31.85;100852.88;5036431;28;20183;-73
2022/07/08 02:47:36;;;;;;;4.82;2.30;;;;;;;27.35;31.75;100835.13;5045308;28;20107;-74
2022/07/08 02:50:05;;;;;;;3.80;1.95;;;;;;;27.43;32.53;100858.97;5047353;28;20055;-70
2022/07/08 02:52:32;;;;;;;3.22;2.17;;;;;;;27.28;32.32;100837.88;5044500;28;20073;-70
2022/07/08 02:54:59;;;;;;;2.58;1.60;;;;;;;27.40;32.43;100846.22;5046999;28;20091;-72
2022/07/08 02:57:26;;;;;;;5.43;3.35;;;;;;;27.39;32.23;100861.78;5038069;28;20107;-72
2022/07/08 02:59:53;;;;;;;3.75;2.58;;;;;;;27.25;32.86;100838.66;5041866;28;20072;-77
2022/07/08 03:02:21;;;;;;;5.43;3.73;;;;;;;27.44;32.68;100866.34;5046482;28;20111;-79
2022/07/08 03:04:48;;;;;;;6.22;3.35;;;;;;;27.47;32.67;100847.56;5048029;28;20053;-75
2022/07/08 03:07:15;;;;;;;5.32;2.92;;;;;;;27.44;32.68;100848.31;5049382;28;20098;-75
2022/07/08 03:09:42;;;;;;;4.28;2.58;;;;;;;27.42;32.80;100840.13;5056093;28;20080;-79
2022/07/08 03:12:09;;;;;;;8.00;3.67;;;;;;;27.38;32.85;100844.97;5042514;28;20132;-79
2022/07/08 03:14:36;;;;;;;6.00;3.60;;;;;;;27.30;33.26;100840.34;5035646;28;20127;-74
2022/07/08 03:17:03;;;;;;;7.22;4.22;;;;;;;27.32;32.62;100849.41;5039502;28;20128;-73
2022/07/08 03:19:30;;;;;;;7.38;3.97;;;;;;;27.23;32.71;100823.88;5041281;28;20175;-77
2022/07/08 03:21:57;;;;;;;7.78;4.00;;;;;;;27.31;32.97;100857.16;5039386;28;20120;-77
2022/07/08 03:24:24;;;;;;;9.35;4.28;;;;;;;27.21;33.33;100851.25;5045665;28;20081;-77
2022/07/08 03:26:51;;;;;;;4.78;3.60;;;;;;;27.25;33.63;100852.13;5053122;28;20124;-77
2022/07/08 03:29:18;;;;;;;7.22;3.95;;;;;;;27.33;32.65;100856.78;5043923;28;20147;-75
2022/07/08 03:31:44;;;;;;;7.78;5.13;;;;;;;27.20;32.82;100838.16;5047864;28;20106;-75
2022/07/08 03:34:11;;;;;;;4.65;3.15;;;;;;;27.20;33.00;100853.31;5047936;28;20099;-75
2022/07/08 03:36:39;;;;;;;6.30;4.32;;;;;;;27.10;33.32;100846.16;5038976;28;20048;-75
2022/07/08 03:39:05;;;;;;;8.57;5.07;;;;;;;27.24;32.94;100844.75;5039603;28;20136;-75
2022/07/08 03:41:33;;;;;;;6.57;4.03;;;;;;;27.14;32.99;100847.06;5048434;28;20128;-74
2022/07/08 03:44:00;;;;;;;9.88;3.97;;;;;;;27.25;32.84;100866.47;5049970;28;20102;-74
2022/07/08 03:46:27;;;;;;;5.57;4.40;;;;;;;27.21;33.07;100865.59;5049843;28;20080;-74
2022/07/08 03:48:54;;;;;;;7.72;4.35;;;;;;;27.13;33.00;100864.69;5047090;28;20895;-73
2022/07/08 03:51:23;;;;;;;5.13;3.88;;;;;;;26.93;32.94;100852.47;5035156;28;20057;-75
2022/07/08 03:53:49;;;;;;;6.18;3.72;;;;;;;27.00;32.83;100861.16;5048523;28;20045;-75
2022/07/08 03:56:16;;;;;;;7.28;3.80;;;;;;;26.99;33.14;100856.66;5041633;28;20092;-74
2022/07/08 03:58:43;;;;;;;6.85;4.18;;;;;;;26.94;32.86;100865.59;5046030;28;20492;-74
2022/07/08 04:01:10;;;;;;;8.25;5.22;;;;;;;27.00;32.26;100869.75;5038863;28;20073;-73
2022/07/08 04:03:37;;;;;;;10.38;4.65;;;;;;;26.91;32.49;100849.16;5041911;28;20055;-73
2022/07/08 04:06:04;;;;;;;8.18;4.82;;;;;;;26.82;32.17;100840.00;5048128;28;20072;-74
2022/07/08 04:08:31;;;;;;;7.70;4.90;;;;;;;26.92;32.13;100856.53;5050749;28;20049;-75
2022/07/08 04:10:59;;;;;;;7.53;4.22;;;;;;;26.75;32.24;100851.34;5040287;28;20048;-69
2022/07/08 04:13:29;;;;;;;6.85;4.35;;;;;;;26.72;32.22;100852.13;5049617;28;20077;-77
2022/07/08 04:15:56;;;;;;;6.13;3.38;;;;;;;26.81;32.00;100884.19;5041296;28;20055;-76
2022/07/08 04:18:25;;;;;;;6.20;4.45;;;;;;;26.67;32.08;100868.41;5034132;28;20053;-74
2022/07/08 04:20:52;;;;;;;10.32;5.43;;;;;;;26.56;31.65;100849.38;5042822;28;20096;-69
2022/07/08 04:23:19;;;;;;;8.35;5.07;;;;;;;26.66;31.90;100875.34;5041761;28;20080;-67
2022/07/08 04:25:46;;;;;;;5.68;3.88;;;;;;;26.49;31.76;100877.88;5037699;28;20576;-67
2022/07/08 04:28:13;;;;;;;7.75;5.40;;;;;;;26.40;31.60;100847.44;5049049;28;20136;-69
2022/07/08 04:30:40;;;;;;;8.43;5.78;;;;;;;26.51;31.73;100886.94;5048579;28;20084;-68
2022/07/08 04:33:08;;;;;;;3.30;2.75;;;;;;;26.52;31.59;100877.97;5036497;28;20512;-69
2022/07/08 04:35:36;;;;;;;11.25;7.40;;;;;;;26.49;30.88;100895.91;5032947;28;20140;-67
2022/07/08 04:38:03;;;;;;;6.85;4.07;;;;;;;26.42;30.89;100873.66;5035785;28;20099;-67
2022/07/08 04:40:30;;;;;;;10.00;7.20;;;;;;;26.37;30.52;100882.56;5038709;28;20393;-67
2022/07/08 04:42:57;;;;;;;8.10;6.00;;;;;;;26.53;30.65;100884.50;5039578;28;20049;-67
2022/07/08 04:45:24;;;;;;;7.90;5.50;;;;;;;26.42;30.41;100872.81;5043397;28;20052;-67
2022/07/08 04:47:52;;;;;;;9.20;6.05;;;;;;;26.37;30.33;100884.63;5044587;28;20124;-68
2022/07/08 04:50:19;;;;;;;15.43;9.30;;;;;;;26.50;30.01;100899.63;5036147;28;20468;-69
2022/07/08 04:52:47;;;;;;;15.02;10.63;;;;;;;26.56;29.77;100892.34;5031277;28;20128;-68
2022/07/08 04:55:27;;;;;;;8.35;5.30;;;;;;;26.36;29.76;100871.47;5041599;28;20466;-70
2022/07/08 04:58:02;;;;;;;22.30;13.85;;;;;;;26.30;29.38;100867.31;5034792;28;20053;-68
2022/07/08 05:00:31;;;;;;;12.73;9.48;;;;;;;26.33;29.25;100866.53;5040241;28;20128;-67
2022/07/08 05:02:59;;;;;;;20.83;18.53;;;;;;;26.43;29.38;100892.50;5046510;28;20085;-69
2022/07/08 05:05:27;;;;;;;16.63;15.23;;;;;;;26.30;29.10;100875.88;5051954;28;20057;-68
2022/07/08 05:07:56;;;;;;;19.98;18.10;;;;;;;26.36;29.62;100888.66;5038915;28;20044;-70
2022/07/08 05:10:24;;;;;;;21.23;19.10;;;;;;;26.39;29.02;100873.59;5044747;28;20054;-69
2022/07/08 05:12:52;;;;;;;19.58;17.80;;;;;;;26.40;29.42;100889.59;5039394;28;20133;-66
2022/07/08 05:15:20;;;;;;;14.35;10.55;;;;;;;26.27;29.47;100886.06;5046922;28;20128;-67
2022/07/08 05:17:49;;;;;;;25.27;16.55;;;;;;;26.32;29.38;100880.00;5042124;28;20045;-67
2022/07/08 05:20:16;;;;;;;28.25;17.90;;;;;;;26.34;29.43;100899.69;5034885;28;20053;-67
2022/07/08 05:22:43;;;;;;;23.98;16.13;;;;;;;26.15;28.79;100861.31;5041762;28;20052;-69
2022/07/08 05:25:11;;;;;;;28.48;19.92;;;;;;;26.23;28.97;100900.31;5046560;28;20091;-66
2022/07/08 05:27:38;;;;;;;27.90;18.10;;;;;;;26.26;28.72;100897.88;5040450;28;20084;-67
2022/07/08 05:30:08;;;;;;;22.48;15.57;;;;;;;26.22;29.41;100892.94;5041073;28;20465;-66
2022/07/08 05:32:35;;;;;;;17.27;12.35;;;;;;;26.14;28.66;100893.97;5041045;28;20148;-68
2022/07/08 05:35:04;;;;;;;26.35;13.68;;;;;;;26.08;28.95;100874.63;5039641;28;20136;-68
2022/07/08 05:37:32;;;;;;;19.88;15.40;;;;;;;26.31;28.05;100889.00;5035402;28;20058;-68
2022/07/08 05:39:59;;;;;;;24.08;17.63;;;;;;;26.30;28.63;100881.63;5045807;28;20568;-69
2022/07/08 05:42:26;;;;;;;21.48;15.07;;;;;;;26.46;28.72;100896.63;5036008;28;20098;-70
2022/07/08 05:44:53;;;;;;;22.35;15.88;;;;;;;26.51;28.28;100898.41;5048269;28;20128;-71
2022/07/08 05:47:20;;;;;;;34.13;22.48;;;;;;;26.73;27.70;100916.78;5028897;28;20125;-69
2022/07/08 05:49:46;;;;;;;29.23;17.90;;;;;;;26.82;27.29;100891.56;5038188;28;20073;-70
2022/07/08 05:52:13;;;;;;;25.05;13.93;;;;;;;26.89;26.85;100920.34;5033571;28;20077;-70
2022/07/08 05:54:45;;;;;;;15.30;12.23;;;;;;;26.88;27.52;100901.50;5046426;28;20120;-70
2022/07/08 05:57:13;;;;;;;16.67;10.90;;;;;;;26.95;27.09;100861.50;5048268;28;20674;-70
2022/07/08 05:59:44;;;;;;;18.15;13.68;;;;;;;27.25;27.56;100909.50;5046565;28;20511;-69
2022/07/08 06:02:11;;;;;;;19.58;12.73;;;;;;;27.30;26.68;100894.84;5041014;28;20089;-68
2022/07/08 06:04:38;;;;;;;13.85;10.80;;;;;;;27.38;26.90;100905.19;5035265;28;20133;-69
2022/07/08 06:07:05;;;;;;;30.60;15.60;;;;;;;27.64;26.43;100918.69;5040742;28;20049;-70
2022/07/08 06:09:32;;;;;;;39.03;21.00;;;;;;;27.77;26.32;100925.03;5041519;28;20088;-69
2022/07/08 06:11:59;;;;;;;41.75;24.23;;;;;;;27.81;25.59;100920.19;5046320;28;20060;-69
2022/07/08 06:14:25;;;;;;;21.67;16.42;;;;;;;27.96;25.22;100930.63;5044998;28;20097;-70
2022/07/08 06:16:52;;;;;;;28.38;16.08;;;;;;;28.01;25.18;100929.47;5037460;28;20416;-70
2022/07/08 06:19:19;;;;;;;34.78;19.10;;;;;;;28.22;25.14;100929.72;5036260;28;20457;-69
2022/07/08 06:21:46;;;;;;;16.17;7.95;;;;;;;28.23;25.00;100913.31;5038231;28;20081;-69
2022/07/08 06:24:13;;;;;;;15.18;9.48;;;;;;;28.43;24.70;100946.41;5041174;28;20123;-70
2022/07/08 06:26:43;;;;;;;14.52;7.75;;;;;;;28.53;24.59;100931.31;5045343;28;20128;-68
2022/07/08 06:29:11;;;;;;;12.20;7.78;;;;;;;28.52;24.26;100948.97;5039644;28;20107;-69
2022/07/08 06:31:38;;;;;;;18.35;11.13;;;;;;;28.50;24.90;100943.59;5036863;28;20061;-70
2022/07/08 06:34:06;;;;;;;7.72;4.25;;;;;;;28.59;24.33;100946.16;5038530;28;20048;-69
2022/07/08 06:36:33;;;;;;;8.32;5.20;;;;;;;28.64;24.52;100931.41;5043777;28;20044;-68
2022/07/08 06:39:00;;;;;;;5.75;3.75;;;;;;;28.90;23.98;100930.44;5041605;28;20139;-69
2022/07/08 06:41:31;;;;;;;4.72;3.63;;;;;;;29.27;23.55;100943.94;5043385;28;20049;-71
2022/07/08 06:43:58;;;;;;;5.78;4.10;;;;;;;29.37;23.22;100951.81;5034150;28;20111;-70
2022/07/08 06:46:25;;;;;;;9.32;4.53;;;;;;;29.52;23.38;100944.91;5046213;28;20041;-68
2022/07/08 06:48:52;;;;;;;6.53;4.45;;;;;;;29.48;22.91;100932.56;5043838;28;20060;-70
2022/07/08 06:51:20;;;;;;;10.95;5.57;;;;;;;29.74;23.41;100933.56;5045297;28;20049;-70
2022/07/08 06:56:33;;;;;;;10.75;4.72;;;;;;;29.88;23.03;100930.78;5040676;28;20128;-70
2022/07/08 06:59:00;;;;;;;6.63;2.55;;;;;;;30.04;22.56;100947.69;5044730;28;20076;-70
2022/07/08 07:01:27;;;;;;;5.00;2.20;;;;;;;30.04;22.37;100923.84;5049485;28;20049;-69
2022/07/08 07:03:54;;;;;;;3.15;2.13;;;;;;;30.49;22.44;100956.13;5045891;28;20107;-69
2022/07/08 07:06:21;;;;;;;5.90;2.20;;;;;;;30.74;22.04;100953.31;5046081;28;20055;-69
2022/07/08 07:08:48;;;;;;;5.32;2.08;;;;;;;30.89;21.79;100964.47;5048336;28;20571;-70
2022/07/08 07:11:15;;;;;;;12.90;3.40;;;;;;;31.10;22.05;100962.84;5043952;28;20132;-69
2022/07/08 07:13:42;;;;;;;5.22;3.50;;;;;;;31.20;22.39;100950.47;5050301;28;20076;-69
2022/07/08 07:16:09;;;;;;;4.10;1.38;;;;;;;31.33;21.49;100959.56;5043555;28;20143;-70
2022/07/08 07:18:36;;;;;;;2.03;1.30;;;;;;;31.56;21.69;100944.69;5037550;28;20140;-71
2022/07/08 07:21:03;;;;;;;2.08;1.17;;;;;;;31.82;21.40;100941.31;5040418;28;20048;-69
2022/07/08 07:23:30;;;;;;;2.40;1.40;;;;;;;31.93;21.59;100937.59;5048744;28;20071;-70
2022/07/08 07:25:57;;;;;;;8.38;1.42;;;;;;;32.08;21.27;100963.13;5037828;28;20136;-70
2022/07/08 07:28:24;;;;;;;2.75;1.20;;;;;;;32.12;21.05;100965.19;5038934;28;20048;-69
2022/07/08 07:30:51;;;;;;;4.13;2.95;;;;;;;32.14;21.72;100960.63;5035295;28;20045;-70
2022/07/08 07:33:18;;;;;;;2.58;1.95;;;;;;;31.95;21.03;100950.38;5044087;28;20140;-69
2022/07/08 07:35:45;;;;;;;5.85;2.75;;;;;;;32.03;21.67;100946.22;5043253;28;20565;-70
2022/07/08 07:38:11;;;;;;;5.18;2.47;;;;;;;32.17;21.90;100954.03;5041745;28;20056;-71
2022/07/08 07:40:38;;;;;;;1.92;1.70;;;;;;;31.90;21.33;100936.38;5036508;28;20136;-71
2022/07/08 07:43:05;;;;;;;2.63;1.20;;;;;;;31.71;21.17;100951.25;5040845;28;20049;-72
2022/07/08 07:45:32;;;;;;;3.97;1.77;;;;;;;31.69;21.77;100945.88;5046343;28;20127;-70
2022/07/08 07:47:59;;;;;;;4.55;1.85;;;;;;;31.85;21.72;100956.97;5028892;28;20512;-70
2022/07/08 07:50:26;;;;;;;4.22;1.70;;;;;;;31.81;21.23;100933.88;5045162;28;20084;-71
2022/07/08 07:52:54;;;;;;;4.75;1.45;;;;;;;31.81;21.19;100961.94;5040994;28;22475;-70
2022/07/08 07:55:21;;;;;;;2.53;1.20;;;;;;;31.82;21.09;100957.81;5037550;28;20148;-71
2022/07/08 07:57:49;;;;;;;3.22;1.23;;;;;;;31.92;21.64;100965.66;5041432;28;20159;-71
2022/07/08 08:00:17;;;;;;;5.38;1.45;;;;;;;31.73;20.88;100955.38;5043201;28;20163;-70
2022/07/08 08:02:44;;;;;;;1.95;0.95;;;;;;;31.80;21.59;100966.09;5036887;28;20140;-71
2022/07/08 08:05:11;;;;;;;1.27;1.10;;;;;;;32.00;20.78;100947.06;5041061;28;20546;-71
2022/07/08 08:07:40;;;;;;;3.05;1.15;;;;;;;32.18;21.24;100929.66;5041545;28;20049;-70
2022/07/08 08:10:08;;;;;;;3.28;1.08;;;;;;;32.39;21.11;100948.13;5041565;28;20119;-70
2022/07/08 08:12:35;;;;;;;1.00;0.70;;;;;;;32.03;20.84;100899.16;5038576;28;20080;-69
2022/07/08 08:15:04;;;;;;;2.38;1.20;;;;;;;31.93;21.38;100946.25;5044018;28;20077;-69
2022/07/08 08:17:41;;;;;;;1.50;1.17;;;;;;;31.83;21.12;100954.53;5036151;28;20477;-70
2022/07/08 08:20:10;;;;;;;3.13;1.50;;;;;;;31.70;21.50;100935.19;5034848;28;20059;-70
2022/07/08 08:22:38;;;;;;;4.55;1.23;;;;;;;31.86;21.45;100955.72;5042091;28;21236;-69
2022/07/08 08:25:25;;;;;;;1.98;1.33;;;;;;;31.80;21.65;100952.47;5050453;28;20044;-70
2022/07/08 08:27:52;;;;;;;2.50;1.52;;;;;;;31.87;21.31;100931.44;5038847;28;20059;-70
2022/07/08 08:30:19;;;;;;;2.08;0.93;;;;;;;31.99;20.83;100938.81;5042037;28;20061;-70
2022/07/08 08:32:46;;;;;;;1.20;0.80;;;;;;;31.96;21.11;100937.56;5038137;28;20126;-70
2022/07/08 08:35:13;;;;;;;0.65;0.65;;;;;;;31.81;21.12;100939.66;5043150;28;20482;-69
2022/07/08 08:37:40;;;;;;;1.45;1.10;;;;;;;31.74;20.79;100950.41;5039664;28;20050;-70
2022/07/08 08:40:12;;;;;;;2.83;1.33;;;;;;;31.85;21.14;100928.91;5041051;28;20073;-70
2022/07/08 08:42:40;;;;;;;1.50;1.20;;;;;;;32.13;20.84;100930.06;5042232;28;20123;-70
2022/07/08 08:45:09;;;;;;;10.00;1.30;;;;;;;32.19;21.46;100931.28;5041651;28;20122;-69
2022/07/08 08:47:36;;;;;;;1.73;1.10;;;;;;;32.32;21.81;100941.13;5044270;28;20520;-69
2022/07/08 08:52:54;;;;;;;0.80;0.80;;;;;;;32.52;20.36;100923.31;5045455;28;20758;-69
2022/07/08 08:55:27;;;;;;;3.85;1.10;;;;;;;32.56;20.63;100929.88;5049903;28;20072;-70
2022/07/08 08:58:03;;;;;;;1.33;0.88;;;;;;;32.64;20.80;100931.47;5043742;28;20573;-68
2022/07/08 09:00:32;;;;;;;1.33;0.95;;;;;;;32.49;21.37;100924.97;5037730;28;20131;-70
2022/07/08 09:03:00;;;;;;;3.20;0.90;;;;;;;32.40;20.73;100915.91;5040737;28;20049;-70
2022/07/08 09:05:28;;;;;;;1.60;1.08;;;;;;;32.56;20.77;100921.22;5038631;28;20045;-70
2022/07/08 09:07:56;;;;;;;4.35;1.35;;;;;;;32.64;21.38;100922.78;5041664;28;20068;-70
2022/07/08 09:10:23;;;;;;;2.30;0.80;;;;;;;32.51;21.18;100904.28;5045215;28;20049;-71
2022/07/08 09:13:02;;;;;;;2.10;1.75;;;;;;;32.63;21.15;100921.16;5035077;28;20072;-70
2022/07/08 09:15:36;;;;;;;2.13;0.98;;;;;;;32.73;20.51;100917.38;5039229;28;20079;-70
2022/07/08 09:18:08;;;;;;;2.90;1.05;;;;;;;32.73;19.99;100919.44;5048737;28;20464;-70
2022/07/08 09:20:45;;;;;;;1.40;1.10;;;;;;;32.69;20.24;100925.25;5039002;28;20045;-70
2022/07/08 09:23:19;;;;;;;1.00;0.88;;;;;;;32.67;20.81;100921.94;5049001;28;20049;-70
2022/07/08 09:25:51;;;;;;;1.65;0.63;;;;;;;32.60;20.59;100922.00;5051077;28;20500;-69
2022/07/08 09:28:44;;;;;;;3.28;1.33;;;;;;;32.42;20.35;100921.31;5046355;28;20068;-69
2022/07/08 09:31:14;;;;;;;0.95;0.75;;;;;;;32.53;20.61;100919.16;5038386;28;20515;-69
2022/07/08 09:33:42;;;;;;;0.75;0.70;;;;;;;32.51;20.18;100918.75;5039011;28;20053;-69
2022/07/08 09:36:10;;;;;;;1.23;0.98;;;;;;;32.68;20.63;100920.69;5037530;28;20049;-69
2022/07/08 09:38:40;;;;;;;1.88;1.05;;;;;;;32.89;20.07;100925.53;5038536;28;20053;-69
2022/07/08 09:41:10;;;;;;;3.85;0.68;;;;;;;32.97;21.16;100935.81;5037181;28;20053;-70
2022/07/08 09:43:50;;;;;;;1.33;0.82;;;;;;;32.69;20.67;100902.13;5035821;28;20496;-70
2022/07/08 09:46:18;;;;;;;0.63;0.60;;;;;;;32.94;20.66;100901.91;5040122;28;20045;-69
2022/07/08 09:48:45;;;;;;;1.95;0.98;;;;;;;33.20;20.44;100926.53;5036571;28;20045;-70
2022/07/08 09:51:15;;;;;;;1.48;0.93;;;;;;;33.41;20.47;100910.19;5035002;28;20110;-69
2022/07/08 09:53:43;;;;;;;0.75;0.65;;;;;;;33.57;20.14;100913.34;5035305;28;20052;-70
2022/07/08 09:56:10;;;;;;;0.52;0.52;;;;;;;33.61;20.13;100910.41;5039254;28;20063;-70
2022/07/08 09:58:38;;;;;;;3.38;1.00;;;;;;;33.75;20.05;100903.66;5042193;28;20051;-70
2022/07/08 10:01:06;;;;;;;2.83;1.15;;;;;;;34.07;19.75;100909.88;5036694;28;20126;-71
2022/07/08 10:03:35;;;;;;;0.82;0.65;;;;;;;34.18;19.20;100904.75;5034365;28;20455;-69
2022/07/08 10:06:03;;;;;;;0.55;0.52;;;;;;;34.18;19.83;100898.13;5037540;28;20044;-69
2022/07/08 10:08:31;;;;;;;1.48;0.90;;;;;;;34.14;19.58;100909.78;5046408;28;20095;-69
2022/07/08 10:10:59;;;;;;;1.73;0.73;;;;;;;34.31;19.30;100907.88;5044053;28;20045;-69
2022/07/08 10:13:27;;;;;;;1.10;1.00;;;;;;;34.28;19.41;100893.44;5038319;28;20083;-70
2022/07/08 10:16:01;;;;;;;2.97;0.90;;;;;;;34.30;19.75;100888.03;5043367;28;20064;-70
2022/07/08 10:18:41;;;;;;;1.88;0.75;;;;;;;34.51;19.45;100881.94;5039453;28;20496;-69
2022/07/08 10:21:11;;;;;;;2.10;0.90;;;;;;;34.88;19.51;100895.44;5047335;28;20092;-69
2022/07/08 10:23:50;;;;;;;0.50;0.50;;;;;;;34.90;19.50;100881.28;5039694;28;20111;-70
2022/07/08 10:26:22;;;;;;;1.40;0.90;;;;;;;35.02;19.51;100876.16;5038661;28;20785;-70
2022/07/08 10:29:06;;;;;;;1.92;1.00;;;;;;;35.37;18.66;100904.53;5040764;28;20147;-69
2022/07/08 10:31:53;;;;;;;1.55;0.90;;;;;;;35.00;18.94;100893.97;5036377;28;22149;-68
2022/07/08 10:34:28;;;;;;;3.72;0.80;;;;;;;35.13;19.28;100902.91;5037221;28;20049;-70
2022/07/08 10:36:55;;;;;;;5.43;0.60;;;;;;;35.32;19.40;100889.72;5032977;28;20056;-69
2022/07/08 10:39:36;;;;;;;3.10;0.90;;;;;;;35.54;18.76;100896.78;5041912;28;20522;-68
2022/07/08 10:42:08;;;;;;;3.15;0.80;;;;;;;35.73;18.93;100892.25;5043148;28;20114;-69
2022/07/08 10:44:46;;;;;;;1.30;0.82;;;;;;;35.81;18.76;100878.38;5037018;28;20136;-69
2022/07/08 10:47:39;;;;;;;3.42;1.08;;;;;;;35.94;19.10;100890.97;5048433;28;20049;-68
2022/07/08 10:50:08;;;;;;;3.28;1.00;;;;;;;36.12;18.70;100886.91;5041508;28;20104;-70
2022/07/08 10:52:39;;;;;;;;;;;;;;;35.84;18.88;100878.31;5037538;28;20495;-69
2022/07/08 10:55:13;;;;;;;2.30;0.82;;;;;;;36.02;18.83;100886.66;5040587;28;20360;-69
2022/07/08 10:57:54;;;;;;;0.68;0.68;;;;;;;35.86;18.02;100882.84;5056907;28;20088;-68
2022/07/08 11:00:22;;;;;;;1.40;0.98;;;;;;;35.53;19.29;100856.56;5043841;28;20077;-68
2022/07/08 11:02:50;;;;;;;2.60;1.20;;;;;;;35.86;18.59;100885.75;5039543;28;20056;-68
2022/07/08 11:05:35;;;;;;;1.23;1.00;;;;;;;35.99;18.94;100872.19;5036288;28;20134;-68
2022/07/08 11:08:20;;;;;;;0.68;0.68;;;;;;;36.09;18.69;100879.06;5044687;28;20180;-69
2022/07/08 11:10:48;;;;;;;2.17;1.30;;;;;;;36.14;18.70;100870.66;5045168;28;20511;-69
2022/07/08 11:13:22;;;;;;;2.10;1.25;;;;;;;36.11;18.53;100853.28;5043615;28;20045;-68
2022/07/08 11:15:49;;;;;;;2.03;0.80;;;;;;;36.38;18.46;100868.44;5039273;28;20503;-69
2022/07/08 11:18:24;;;;;;;1.65;1.00;;;;;;;36.60;19.14;100851.28;5042612;28;20052;-69
2022/07/08 11:21:02;;;;;;;3.10;2.13;;;;;;;36.77;18.67;100843.38;5037402;28;20045;-69
2022/07/08 11:23:30;;;;;;;3.40;1.20;;;;;;;37.11;18.06;100857.47;5043053;28;20057;-68
2022/07/08 11:25:59;;;;;;;4.20;1.10;;;;;;;37.30;18.28;100858.66;5040366;28;20457;-69
2022/07/08 11:28:26;;;;;;;1.38;0.90;;;;;;;37.05;17.93;100811.91;5032683;28;20060;-70
2022/07/08 11:30:53;;;;;;;3.13;1.70;;;;;;;37.10;18.60;100843.41;5035936;28;20162;-69
2022/07/08 11:33:38;;;;;;;1.63;0.90;;;;;;;37.15;18.97;100831.19;5040951;28;20049;-70